UGTBLATI

Guest
Details From UGTB - TBILISI
To LATI - Tirana Rinas
Flight Number -
Tags decoded
Created
Modified
Stats Distance 1,144 nm / 2,119 km
Max Altitude 0 ft / 0 m
Waypoints 7
Social Downloads 0
Likes 0
Share VATSIM

Download

Looking for another format? Having issues loading an existing format? Contact us
Advertisement - Login to hide

Notes

Requested: UGTB BARUS KARAT URITA BLO SIN LATI

Route

UGTB BARUS KARAT URITA BLO SIN LATI

ID Type Via Altitude Latitude Longitude Leg Dist Tot Dist Heading (true) Name
O UGTB APT - 0 ft / 0 m 41.66858˚ 44.95364˚ - 0 nm - TBILISI
BARUS FIX - 0 ft / 0 m 41.90389˚ 42.84167˚ 95 nm 95 nm 279° / 278° -
KARAT FIX - 0 ft / 0 m 42.68139˚ 39.27028˚ 165 nm 260 nm 288° / 285° -
URITA FIX - 0 ft / 0 m 43.28638˚ 34.39515˚ 217 nm 478 nm 281° / 278° -
BLO VOR - 0 ft / 0 m 42.66722˚ 23.81389˚ 466 nm 944 nm 269° / 262° BAILOVO VOR-DME
SIN VOR - 0 ft / 0 m 41.98083˚ 22.36556˚ 76 nm 1020 nm 238° / 237° SINKO VOR-DME
O LATI APT - 0 ft / 0 m 41.41473˚ 19.72057˚ 123 nm 1144 nm 255° / 253° Tirana Rinas

Altitude Profile

Advertisement - Login to hide

Weather


0- 5 10 15 20 25 30 35+ Temperature / ° C

Clouds and Precipitation
Forecast for 2018-05-21 06:00 UTC. Updated 15 minutes ago

Ground ~20,000 ft ~40,000 ft Winds

UGTB

Details ICAO UGTB (TBS)
Name TBILISI
Region Georgia
Timezone Asia/Tbilisi (UTC+4.0)
Stats Elevation 1,624 ft / 495 m (AMSL)
Location 41.668582° 44.953644°
Runways 2
Magnetic Variation 6.681° E

METAR

UGTB 210530Z 24004KT 210V270 CAVOK 20/13 Q1019 NOSIG

Decode

TAF

TAF UGTB 202300Z 2100/2124 VRB02KT 9999 BKN050CB TX25/2112Z TN17/2102Z PROB30 TEMPO 2101/2107 SHRA PROB40 TEMPO 2116/2124 VRB12KT TSRA BKN040CB

Decode

Departure Runways

ID Width Length Bearing (true) Bearing (mag) Surface Threshold Offset Overrun Length
13L 196 ft / 60 m 8,208 ft / 2,502 m 133.64° 126.96° Asphalt 0 ft / 0 m 0 ft / 0 m
13R 147 ft / 45 m 9,839 ft / 2,999 m 136.65° 129.97° Concrete 0 ft / 0 m 155 ft / 47 m
31L 147 ft / 45 m 9,839 ft / 2,999 m 316.67° 309.99° Concrete 0 ft / 0 m 150 ft / 46 m
31R 196 ft / 60 m 8,208 ft / 2,502 m 313.65° 306.97° Asphalt 0 ft / 0 m 0 ft / 0 m

LATI

Details ICAO LATI (TIA)
Name Tirana Rinas
Region Albania
Timezone Europe/Tirane (UTC+2.0)
Stats Elevation 126 ft / 38 m (AMSL)
Location 41.414732° 19.720569°
Runways 1
Magnetic Variation 4.277° E

METAR

LATI 210520Z VRB02KT CAVOK 19/16 Q1013 NOSIG

Decode

TAF

TAF TAF LATI 202300Z 2100/2124 VRB03KT 9999 SCT030 BKN080 TX27/2111Z TN16/2104Z TEMPO 2109/2122 -TSRA SCT025CB BKN050 TEMPO 2113/2118 VRB05G20KT 5000 TSRA

Decode

Destination Runways

ID Width Length Bearing (true) Bearing (mag) Surface Threshold Offset Overrun Length
18 148 ft / 45 m 8,984 ft / 2,738 m 174.31° 170.03° Asphalt 500 ft / 152 m 0 ft / 0 m
36 148 ft / 45 m 8,984 ft / 2,738 m 354.31° 350.03° Asphalt 500 ft / 152 m 0 ft / 0 m

Popular Alternatives